createdAt,value
2022-10-11T00:00:40.891Z,101238.34
2022-10-11T00:03:07.819Z,101248.97
2022-10-11T00:05:35.296Z,101254.28
2022-10-11T00:08:01.972Z,101244.38
2022-10-11T00:10:28.645Z,101260.16
2022-10-11T00:12:55.343Z,101251.03
2022-10-11T00:15:23.227Z,101253.78
2022-10-11T00:17:50.233Z,101260.53
2022-10-11T00:20:17.927Z,101259.06
2022-10-11T00:22:44.812Z,101264.22
2022-10-11T00:25:12.901Z,101262.75
2022-10-11T00:27:39.972Z,101264.28
2022-10-11T00:30:07.628Z,101269.88
2022-10-11T00:32:35.028Z,101276.81
2022-10-11T00:35:06.291Z,101282.78
2022-10-11T00:37:38.387Z,101283.34
2022-10-11T00:40:13.179Z,101279.88
2022-10-11T00:42:39.939Z,101277.41
2022-10-11T00:45:28.103Z,101277.88
2022-10-11T00:47:57.288Z,101279.34
2022-10-11T00:50:25.223Z,101285.00
2022-10-11T00:52:59.496Z,101285.13
2022-10-11T00:55:29.535Z,101286.66
2022-10-11T00:57:57.998Z,101283.44
2022-10-11T01:00:24.663Z,101286.41
2022-10-11T01:02:51.667Z,101289.03
2022-10-11T01:05:29.127Z,101285.38
2022-10-11T01:07:56.216Z,101297.91
2022-10-11T01:10:22.888Z,101300.63
2022-10-11T01:13:12.920Z,101298.97
2022-10-11T01:15:45.319Z,101298.34
2022-10-11T01:18:22.103Z,101307.88
2022-10-11T01:21:03.486Z,101306.91
2022-10-11T01:24:15.889Z,101319.19
2022-10-11T01:27:00.960Z,101317.16
2022-10-11T01:29:53.804Z,101324.31
2022-10-11T01:32:29.994Z,101318.34
2022-10-11T01:35:10.670Z,101321.59
2022-10-11T01:37:45.382Z,101323.59
2022-10-11T01:40:48.821Z,101318.56
2022-10-11T01:43:16.655Z,101326.41
2022-10-11T01:45:45.444Z,101328.25
2022-10-11T01:48:13.980Z,101335.06
2022-10-11T01:50:45.495Z,101333.75
2022-10-11T01:53:48.008Z,101333.13
2022-10-11T01:56:36.102Z,101328.78
2022-10-11T01:59:34.801Z,101341.56
2022-10-11T02:02:04.166Z,101335.50
2022-10-11T02:04:38.749Z,101329.16
2022-10-11T02:07:08.332Z,101336.47
2022-10-11T02:09:51.691Z,101339.50
2022-10-11T02:12:30.626Z,101342.75
2022-10-11T02:14:58.238Z,101341.66
2022-10-11T02:17:27.634Z,101352.94
2022-10-11T02:19:57.666Z,101347.50
2022-10-11T02:22:33.912Z,101344.81
2022-10-11T02:25:05.446Z,101348.38
2022-10-11T02:27:37.350Z,101348.81
2022-10-11T02:30:07.542Z,101357.84
2022-10-11T02:32:36.571Z,101361.22
2022-10-11T02:35:03.945Z,101358.19
2022-10-11T02:37:52.854Z,101362.16
2022-10-11T02:40:32.067Z,101363.16
2022-10-11T02:43:07.747Z,101365.09
2022-10-11T02:45:58.137Z,101372.44
2022-10-11T02:48:28.586Z,101366.25
2022-10-11T02:50:57.043Z,101373.13
2022-10-11T02:53:25.385Z,101377.69
2022-10-11T02:55:53.724Z,101376.47
2022-10-11T02:58:21.123Z,101374.25
2022-10-11T03:00:47.969Z,101380.22
2022-10-11T03:03:15.023Z,101377.22
2022-10-11T03:05:42.117Z,101386.09
2022-10-11T03:08:10.301Z,101389.19
2022-10-11T03:10:38.194Z,101385.44
2022-10-11T03:13:04.928Z,101385.53
2022-10-11T03:15:31.984Z,101392.22
2022-10-11T03:17:58.639Z,101389.28
2022-10-11T03:20:25.710Z,101389.06
2022-10-11T03:22:52.360Z,101407.88
2022-10-11T03:25:19.060Z,101400.06
2022-10-11T03:27:45.745Z,101399.78
2022-10-11T03:30:17.331Z,101407.00
2022-10-11T03:32:44.797Z,101420.47
2022-10-11T03:35:11.377Z,101412.28
2022-10-11T03:37:38.149Z,101418.25
2022-10-11T03:40:06.592Z,101417.78
2022-10-11T03:42:33.240Z,101413.34
2022-10-11T03:45:01.763Z,101425.97
2022-10-11T03:47:28.416Z,101420.34
2022-10-11T03:49:54.970Z,101422.94
2022-10-11T03:52:21.580Z,101422.53
2022-10-11T03:54:48.191Z,101429.47
2022-10-11T03:57:14.890Z,101422.03
2022-10-11T03:59:41.460Z,101421.72
2022-10-11T04:02:08.171Z,101420.06
2022-10-11T04:04:34.916Z,101427.44
2022-10-11T04:07:01.538Z,101430.59
2022-10-11T04:09:28.257Z,101437.97
2022-10-11T04:11:54.864Z,101434.75
2022-10-11T04:14:21.423Z,101439.97
2022-10-11T04:16:48.117Z,101443.41
2022-10-11T04:19:14.806Z,101446.44
2022-10-11T04:21:41.493Z,101452.47
2022-10-11T04:24:11.268Z,101446.91
2022-10-11T04:26:38.202Z,101447.97
2022-10-11T04:29:06.201Z,101452.38
2022-10-11T04:31:32.869Z,101450.34
2022-10-11T04:33:59.554Z,101465.38
2022-10-11T04:36:26.652Z,101473.44
2022-10-11T04:38:56.170Z,101462.41
2022-10-11T04:41:22.916Z,101472.47
2022-10-11T04:43:49.485Z,101463.41
2022-10-11T04:46:16.218Z,101480.38
2022-10-11T04:48:42.772Z,101482.06
2022-10-11T04:51:09.514Z,101477.34
2022-10-11T04:53:36.150Z,101489.06
2022-10-11T04:56:11.108Z,101484.53
2022-10-11T04:58:41.084Z,101492.78
2022-10-11T05:01:09.013Z,101505.19
2022-10-11T05:03:36.229Z,101500.09
2022-10-11T05:06:05.899Z,101501.53
2022-10-11T05:08:33.701Z,101500.16
2022-10-11T05:11:04.093Z,101507.06
2022-10-11T05:13:31.671Z,101503.78
2022-10-11T05:15:58.341Z,101502.94
2022-10-11T05:18:25.210Z,101504.84
2022-10-11T05:21:02.129Z,101512.31
2022-10-11T05:23:30.797Z,101507.69
2022-10-11T05:25:57.804Z,101513.59
2022-10-11T05:28:24.663Z,101524.50
2022-10-11T05:30:51.269Z,101524.31
2022-10-11T05:33:17.963Z,101525.06
2022-10-11T05:35:44.869Z,101530.88
2022-10-11T05:38:11.729Z,101530.34
2022-10-11T05:40:39.335Z,101526.56
2022-10-11T05:43:06.426Z,101525.53
2022-10-11T05:45:40.860Z,101535.53
2022-10-11T05:48:08.397Z,101541.31
2022-10-11T05:50:35.939Z,101541.31
2022-10-11T05:53:03.303Z,101545.72
2022-10-11T05:55:30.255Z,101544.38
2022-10-11T05:57:57.734Z,101545.88
2022-10-11T06:00:24.685Z,101547.16
2022-10-11T06:02:51.381Z,101545.84
2022-10-11T06:05:18.039Z,101555.38
2022-10-11T06:07:44.816Z,101558.88
2022-10-11T06:10:11.499Z,101564.97
2022-10-11T06:12:38.909Z,101556.53
2022-10-11T06:15:06.571Z,101567.28
2022-10-11T06:17:33.293Z,101565.16
2022-10-11T06:19:59.847Z,101569.03
2022-10-11T06:22:26.804Z,101571.88
2022-10-11T06:24:53.437Z,101577.63
2022-10-11T06:27:20.120Z,101575.03
2022-10-11T06:29:46.722Z,101577.31
2022-10-11T06:32:13.452Z,101585.63
2022-10-11T06:34:40.024Z,101589.06
2022-10-11T06:37:06.892Z,101597.25
2022-10-11T06:39:33.720Z,101594.19
2022-10-11T06:42:00.669Z,101596.69
2022-10-11T06:44:27.416Z,101593.31
2022-10-11T06:46:54.088Z,101599.75
2022-10-11T06:49:23.340Z,101607.25
2022-10-11T06:51:50.737Z,101611.28
2022-10-11T06:54:17.379Z,101613.13
2022-10-11T06:56:45.681Z,101609.94
2022-10-11T06:59:13.412Z,101625.03
2022-10-11T07:01:40.229Z,101630.16
2022-10-11T07:04:08.145Z,101621.22
2022-10-11T07:06:38.296Z,101621.34
2022-10-11T07:09:05.523Z,101629.06
2022-10-11T07:11:32.575Z,101629.13
2022-10-11T07:14:07.742Z,101627.88
2022-10-11T07:16:37.933Z,101633.78
2022-10-11T07:19:06.636Z,101633.78
2022-10-11T07:21:34.920Z,101636.38
2022-10-11T07:24:02.364Z,101634.66
2022-10-11T07:26:33.722Z,101637.53
2022-10-11T07:29:05.211Z,101647.00
2022-10-11T07:31:32.059Z,101649.94
2022-10-11T07:33:58.678Z,101645.06
2022-10-11T07:36:25.572Z,101655.09
2022-10-11T07:38:52.432Z,101653.97
2022-10-11T07:41:19.829Z,101654.09
2022-10-11T07:43:47.993Z,101655.47
2022-10-11T07:46:14.569Z,101657.44
2022-10-11T07:48:41.939Z,101653.31
2022-10-11T07:51:11.271Z,101658.19
2022-10-11T07:53:42.238Z,101658.63
2022-10-11T07:56:12.492Z,101652.47
2022-10-11T07:58:41.062Z,101653.00
2022-10-11T08:01:09.365Z,101662.31
2022-10-11T08:03:37.825Z,101667.00
2022-10-11T08:06:08.175Z,101668.59
2022-10-11T08:08:36.152Z,101667.19
2022-10-11T08:11:02.983Z,101679.78
2022-10-11T08:13:29.634Z,101669.59
2022-10-11T08:15:56.884Z,101673.38
2022-10-11T08:18:24.217Z,101670.47
2022-10-11T08:20:50.862Z,101684.34
2022-10-11T08:23:19.309Z,101680.88
2022-10-11T08:25:48.012Z,101677.72
2022-10-11T08:28:16.726Z,101683.16
2022-10-11T08:30:53.969Z,101680.84
2022-10-11T08:33:22.600Z,101678.78
2022-10-11T08:35:49.463Z,101686.06
2022-10-11T08:38:16.682Z,101682.09
2022-10-11T08:40:48.734Z,101694.66
2022-10-11T08:43:30.891Z,101693.69
2022-10-11T08:46:01.443Z,101688.84
2022-10-11T08:48:42.227Z,101690.03
2022-10-11T08:51:18.411Z,101694.63
2022-10-11T08:53:57.050Z,101690.91
2022-10-11T08:56:26.399Z,101697.19
2022-10-11T08:59:11.100Z,101694.56
2022-10-11T09:01:46.525Z,101703.13
2022-10-11T09:04:18.060Z,101704.22
2022-10-11T09:07:04.581Z,101707.25
2022-10-11T09:09:45.986Z,101708.09
2022-10-11T09:12:30.882Z,101702.50
2022-10-11T09:15:14.725Z,101709.66
2022-10-11T09:17:52.779Z,101704.75
2022-10-11T09:20:31.708Z,101709.16
2022-10-11T09:23:11.675Z,101710.72
2022-10-11T09:25:48.193Z,101699.94
2022-10-11T09:28:37.168Z,101703.38
2022-10-11T09:31:04.270Z,101702.16
2022-10-11T09:33:38.920Z,101704.75
2022-10-11T09:36:30.508Z,101700.94
2022-10-11T09:39:21.156Z,101705.34
2022-10-11T09:42:01.773Z,101704.22
2022-10-11T09:44:46.289Z,101715.16
2022-10-11T09:47:25.116Z,101711.03
2022-10-11T09:49:57.396Z,101708.94
2022-10-11T09:52:25.242Z,101713.03
2022-10-11T09:54:55.611Z,101709.78
2022-10-11T09:57:30.130Z,101712.22
2022-10-11T10:00:04.865Z,101706.13
2022-10-11T10:02:56.410Z,101711.19
2022-10-11T10:05:28.563Z,101709.78
2022-10-11T10:08:04.272Z,101712.16
2022-10-11T10:10:39.262Z,101707.44
2022-10-11T10:13:22.533Z,101711.78
2022-10-11T10:15:55.076Z,101714.81
2022-10-11T10:18:32.824Z,101716.25
2022-10-11T10:21:00.567Z,101712.72
2022-10-11T10:23:30.403Z,101714.44
2022-10-11T10:26:29.968Z,101719.16
2022-10-11T10:29:00.863Z,101712.41
2022-10-11T10:32:08.797Z,101716.31
2022-10-11T10:34:33.270Z,101714.69
2022-10-11T10:37:20.195Z,101717.97
2022-10-11T10:39:52.050Z,101715.75
2022-10-11T10:42:20.177Z,101716.81
2022-10-11T10:44:52.972Z,101717.78
2022-10-11T10:47:44.489Z,101715.75
2022-10-11T10:50:21.724Z,101708.94
2022-10-11T10:53:06.782Z,101704.41
2022-10-11T10:55:47.293Z,101714.72
2022-10-11T10:58:25.260Z,101711.25
2022-10-11T11:00:57.451Z,101707.47
2022-10-11T11:03:46.018Z,101708.91
2022-10-11T11:06:25.223Z,101709.94
2022-10-11T11:09:02.659Z,101699.63
2022-10-11T11:11:54.201Z,101705.81
2022-10-11T11:14:40.135Z,101703.34
2022-10-11T11:17:31.015Z,101703.78
2022-10-11T11:20:15.960Z,101704.09
2022-10-11T11:22:55.382Z,101704.09
2022-10-11T11:25:29.288Z,101702.13
2022-10-11T11:28:14.502Z,101711.78
2022-10-11T11:31:03.442Z,101702.81
2022-10-11T11:33:47.813Z,101694.94
2022-10-11T11:36:25.108Z,101693.50
2022-10-11T11:38:58.644Z,101709.25
2022-10-11T11:41:40.778Z,101698.13
2022-10-11T11:44:46.879Z,101697.09
2022-10-11T11:47:34.309Z,101696.03
2022-10-11T11:50:15.199Z,101702.91
2022-10-11T11:52:47.114Z,101700.81
2022-10-11T11:55:21.209Z,101699.44
2022-10-11T11:58:20.687Z,101689.09
2022-10-11T12:01:15.850Z,101691.41
2022-10-11T12:03:51.537Z,101696.00
2022-10-11T12:06:26.177Z,101699.75
2022-10-11T12:09:09.408Z,101700.84
2022-10-11T12:11:45.809Z,101693.03
2022-10-11T12:14:29.678Z,101693.41
2022-10-11T12:17:23.571Z,101689.25
2022-10-11T12:20:08.617Z,101686.91
2022-10-11T12:22:35.182Z,101682.22
2022-10-11T12:25:21.716Z,101686.38
2022-10-11T12:27:54.308Z,101686.94
2022-10-11T12:30:42.647Z,101692.16
2022-10-11T12:33:46.137Z,101689.28
2022-10-11T12:36:28.723Z,101690.66
2022-10-11T12:39:18.541Z,101692.53
2022-10-11T12:41:48.652Z,101688.13
2022-10-11T12:44:18.155Z,101689.31
2022-10-11T12:46:50.627Z,101686.69
2022-10-11T12:49:38.721Z,101689.75
2022-10-11T12:52:25.077Z,101693.25
2022-10-11T12:55:13.360Z,101696.53
2022-10-11T12:58:06.061Z,101695.59
2022-10-11T13:00:50.832Z,101699.38
2022-10-11T13:03:26.153Z,101697.94
2022-10-11T13:06:01.340Z,101704.00
2022-10-11T13:08:32.547Z,101692.59
2022-10-11T13:11:04.509Z,101688.59
2022-10-11T13:13:38.062Z,101693.59
2022-10-11T13:16:09.573Z,101690.81
2022-10-11T13:18:36.211Z,101682.94
2022-10-11T13:21:03.090Z,101685.56
2022-10-11T13:23:37.936Z,101691.78
2022-10-11T13:26:05.071Z,101686.47
2022-10-11T13:28:36.269Z,101687.34
2022-10-11T13:31:04.532Z,101687.81
2022-10-11T13:33:34.884Z,101682.88
2022-10-11T13:36:03.979Z,101678.19
2022-10-11T13:38:33.860Z,101676.56
2022-10-11T13:41:04.894Z,101671.69
2022-10-11T13:43:32.233Z,101675.59
2022-10-11T13:46:00.803Z,101676.13
2022-10-11T13:48:31.602Z,101675.94
2022-10-11T13:51:17.766Z,101666.69
2022-10-11T13:54:00.689Z,101666.03
2022-10-11T13:56:29.907Z,101670.13
2022-10-11T13:58:57.085Z,101668.25
2022-10-11T14:01:35.260Z,101674.38
2022-10-11T14:04:06.463Z,101661.94
2022-10-11T14:06:47.848Z,101665.19
2022-10-11T14:09:26.394Z,101661.00
2022-10-11T14:11:53.845Z,101666.00
2022-10-11T14:14:29.591Z,101668.06
2022-10-11T14:17:12.780Z,101668.53
2022-10-11T14:19:39.529Z,101667.09
2022-10-11T14:22:11.946Z,101657.28
2022-10-11T14:24:38.711Z,101661.59
2022-10-11T14:27:06.247Z,101663.66
2022-10-11T14:29:36.018Z,101663.81
2022-10-11T14:32:17.685Z,101662.56
2022-10-11T14:34:46.180Z,101661.34
2022-10-11T14:37:14.803Z,101662.75
2022-10-11T14:39:41.998Z,101669.34
2022-10-11T14:42:10.280Z,101668.28
2022-10-11T14:44:36.917Z,101666.84
2022-10-11T14:47:06.726Z,101669.84
2022-10-11T14:49:36.488Z,101670.75
2022-10-11T14:52:06.406Z,101674.66
2022-10-11T14:54:33.879Z,101669.50
2022-10-11T14:57:03.910Z,101672.00
2022-10-11T14:59:37.009Z,101668.84
2022-10-11T15:02:06.411Z,101668.44
2022-10-11T15:04:33.404Z,101671.81
2022-10-11T15:07:00.777Z,101680.19
2022-10-11T15:09:30.574Z,101676.47
2022-10-11T15:11:57.837Z,101676.22
2022-10-11T15:14:25.352Z,101684.06
2022-10-11T15:16:52.093Z,101680.91
2022-10-11T15:19:24.455Z,101678.16
2022-10-11T15:21:52.123Z,101676.66
2022-10-11T15:24:21.951Z,101671.81
2022-10-11T15:26:49.164Z,101671.41
2022-10-11T15:29:17.966Z,101666.06
2022-10-11T15:31:44.836Z,101665.34
2022-10-11T15:34:11.498Z,101666.91
2022-10-11T15:36:38.349Z,101673.34
2022-10-11T15:39:23.090Z,101679.59
2022-10-11T15:41:49.802Z,101682.47
2022-10-11T15:44:16.373Z,101677.91
2022-10-11T15:46:43.826Z,101677.03
2022-10-11T15:49:13.991Z,101683.88
2022-10-11T15:51:41.219Z,101679.91
2022-10-11T15:54:07.912Z,101674.78
2022-10-11T15:56:35.065Z,101679.56
2022-10-11T15:59:02.039Z,101682.03
2022-10-11T16:01:28.765Z,101676.56
2022-10-11T16:03:55.428Z,101684.22
2022-10-11T16:06:23.296Z,101679.03
2022-10-11T16:08:50.136Z,101674.47
2022-10-11T16:11:17.405Z,101680.66
2022-10-11T16:13:45.133Z,101685.91
2022-10-11T16:16:12.275Z,101681.63
2022-10-11T16:18:39.976Z,101686.16
2022-10-11T16:21:10.107Z,101688.78
2022-10-11T16:23:38.046Z,101688.19
2022-10-11T16:26:08.336Z,101695.81
2022-10-11T16:28:35.846Z,101694.28
2022-10-11T16:31:14.056Z,101691.31
2022-10-11T16:33:45.921Z,101690.41
2022-10-11T16:36:34.719Z,101700.88
2022-10-11T16:39:06.942Z,101697.13
2022-10-11T16:41:33.624Z,101697.66
2022-10-11T16:44:00.541Z,101704.22
2022-10-11T16:46:27.184Z,101708.72
2022-10-11T16:48:58.362Z,101705.34
2022-10-11T16:51:25.428Z,101713.47
2022-10-11T16:53:53.107Z,101707.47
2022-10-11T16:56:22.541Z,101714.81
2022-10-11T16:58:49.431Z,101718.59
2022-10-11T17:01:16.136Z,101713.16
2022-10-11T17:03:42.809Z,101721.00
2022-10-11T17:06:09.931Z,101721.03
2022-10-11T17:08:36.702Z,101720.81
2022-10-11T17:11:04.115Z,101720.06
2022-10-11T17:13:30.835Z,101723.28
2022-10-11T17:15:57.627Z,101717.00
2022-10-11T17:18:24.254Z,101713.72
2022-10-11T17:20:51.059Z,101715.66
2022-10-11T17:23:17.676Z,101714.25
2022-10-11T17:25:46.385Z,101722.50
2022-10-11T17:28:13.430Z,101728.13
2022-10-11T17:30:42.987Z,101714.31
2022-10-11T17:33:09.623Z,101719.16
2022-10-11T17:35:36.503Z,101717.06
2022-10-11T17:38:06.121Z,101719.84
2022-10-11T17:40:33.319Z,101728.50
2022-10-11T17:43:00.012Z,101724.75
2022-10-11T17:45:26.683Z,101724.06
2022-10-11T17:47:53.292Z,101724.06
2022-10-11T17:50:20.087Z,101723.44
2022-10-11T17:52:47.149Z,101726.13
2022-10-11T17:55:13.814Z,101732.41
2022-10-11T17:57:40.503Z,101726.63
2022-10-11T18:00:07.902Z,101725.88
2022-10-11T18:02:34.467Z,101733.59
2022-10-11T18:05:01.220Z,101734.06
2022-10-11T18:07:27.801Z,101732.69
2022-10-11T18:09:54.489Z,101722.84
2022-10-11T18:12:21.119Z,101720.13
2022-10-11T18:14:47.824Z,101720.13
2022-10-11T18:17:14.375Z,101715.25
2022-10-11T18:19:41.075Z,101717.56
2022-10-11T18:22:07.891Z,101722.59
2022-10-11T18:24:34.677Z,101720.16
2022-10-11T18:27:01.323Z,101714.66
2022-10-11T18:29:27.980Z,101714.16
2022-10-11T18:31:54.556Z,101712.03
2022-10-11T18:34:21.377Z,101716.75
2022-10-11T18:36:48.163Z,101719.28
2022-10-11T18:39:15.447Z,101713.34
2022-10-11T18:41:44.689Z,101711.31
2022-10-11T18:44:16.253Z,101719.03
2022-10-11T18:46:44.158Z,101717.31
2022-10-11T18:49:11.163Z,101718.09
2022-10-11T18:51:40.396Z,101714.88
2022-10-11T18:54:08.915Z,101710.38
2022-10-11T18:56:37.055Z,101711.78
2022-10-11T18:59:04.904Z,101705.94
2022-10-11T19:01:34.333Z,101709.47
2022-10-11T19:04:02.531Z,101709.41
2022-10-11T19:06:33.966Z,101709.84
2022-10-11T19:09:10.332Z,101705.88
2022-10-11T19:11:37.830Z,101708.56
2022-10-11T19:14:08.356Z,101705.72
2022-10-11T19:16:37.998Z,101706.81
2022-10-11T19:19:05.608Z,101708.44
2022-10-11T19:21:32.116Z,101706.34
2022-10-11T19:23:59.447Z,101706.75
2022-10-11T19:26:35.098Z,101704.53
2022-10-11T19:29:14.957Z,101710.41
2022-10-11T19:31:44.518Z,101714.66
2022-10-11T19:34:11.929Z,101706.91
2022-10-11T19:36:39.233Z,101707.66
2022-10-11T19:39:06.258Z,101705.44
2022-10-11T19:41:33.173Z,101708.97
2022-10-11T19:44:00.020Z,101696.44
2022-10-11T19:46:49.988Z,101703.03
2022-10-11T19:49:17.583Z,101690.38
2022-10-11T19:51:44.589Z,101693.88
2022-10-11T19:54:13.632Z,101700.16
2022-10-11T19:56:40.804Z,101702.25
2022-10-11T19:59:07.443Z,101703.69
2022-10-11T20:01:35.873Z,101706.31
2022-10-11T20:04:07.732Z,101704.00
2022-10-11T20:06:38.904Z,101706.88
2022-10-11T20:09:28.584Z,101708.84
2022-10-11T20:11:56.513Z,101706.47
2022-10-11T20:14:23.200Z,101706.63
2022-10-11T20:16:50.590Z,101707.53
2022-10-11T20:19:17.239Z,101701.34
2022-10-11T20:21:44.135Z,101706.06
2022-10-11T20:24:10.924Z,101697.50
2022-10-11T20:26:37.649Z,101700.94
2022-10-11T20:29:04.234Z,101698.66
2022-10-11T20:31:33.324Z,101700.38
2022-10-11T20:34:02.262Z,101702.22
2022-10-11T20:36:30.286Z,101701.41
2022-10-11T20:38:58.201Z,101705.66
2022-10-11T20:41:37.280Z,101695.72
2022-10-11T20:44:04.899Z,101697.72
2022-10-11T20:46:37.772Z,101702.00
2022-10-11T20:49:07.443Z,101698.13
2022-10-11T20:51:36.643Z,101690.28
2022-10-11T20:54:04.743Z,101693.81
2022-10-11T20:56:31.746Z,101695.66
2022-10-11T20:58:58.620Z,101689.53
2022-10-11T21:01:30.982Z,101698.38
2022-10-11T21:03:58.981Z,101700.78
2022-10-11T21:06:26.726Z,101710.13
2022-10-11T21:08:55.315Z,101710.22
2022-10-11T21:11:27.650Z,101710.28
2022-10-11T21:13:56.646Z,101713.13
2022-10-11T21:16:23.503Z,101712.41
2022-10-11T21:18:51.972Z,101716.81
2022-10-11T21:21:18.917Z,101715.19
2022-10-11T21:23:45.607Z,101708.00
2022-10-11T21:26:13.935Z,101715.09
2022-10-11T21:28:41.180Z,101716.78
2022-10-11T21:31:10.393Z,101713.19
2022-10-11T21:33:38.214Z,101722.63
2022-10-11T21:36:06.391Z,101716.16
2022-10-11T21:38:33.707Z,101724.25
2022-10-11T21:41:07.495Z,101718.66
2022-10-11T21:43:36.012Z,101724.97
2022-10-11T21:47:01.156Z,101729.41
2022-10-11T21:49:19.924Z,101729.31
2022-10-11T21:51:46.512Z,101728.16
2022-10-11T21:54:13.142Z,101723.00
2022-10-11T21:56:39.916Z,101722.06
2022-10-11T21:59:09.560Z,101733.69
2022-10-11T22:01:39.410Z,101728.41
2022-10-11T22:04:07.611Z,101724.16
2022-10-11T22:06:35.278Z,101737.34
2022-10-11T22:09:01.948Z,101727.53
2022-10-11T22:11:28.700Z,101737.19
2022-10-11T22:13:55.386Z,101730.22
2022-10-11T22:16:22.047Z,101724.81
2022-10-11T22:18:49.390Z,101730.34
2022-10-11T22:21:18.981Z,101717.78
2022-10-11T22:23:48.080Z,101723.16
2022-10-11T22:26:17.910Z,101723.31
2022-10-11T22:28:46.534Z,101722.56
2022-10-11T22:31:14.659Z,101723.41
2022-10-11T22:33:42.193Z,101729.47
2022-10-11T22:36:11.920Z,101720.72
2022-10-11T22:38:40.931Z,101721.56
2022-10-11T22:41:07.736Z,101720.06
2022-10-11T22:43:34.636Z,101721.94
2022-10-11T22:46:01.756Z,101713.09
2022-10-11T22:48:28.471Z,101711.16
2022-10-11T22:50:55.345Z,101723.19
2022-10-11T22:53:21.974Z,101723.84
2022-10-11T22:55:48.633Z,101715.75
2022-10-11T22:58:15.502Z,101718.31
2022-10-11T23:00:42.418Z,101720.59
2022-10-11T23:03:16.122Z,101719.94
2022-10-11T23:05:42.940Z,101717.84
2022-10-11T23:08:10.156Z,101713.84
2022-10-11T23:10:40.250Z,101713.56
2022-10-11T23:13:07.022Z,101705.78
2022-10-11T23:15:33.603Z,101710.19
2022-10-11T23:18:00.298Z,101707.53
2022-10-11T23:20:26.880Z,101710.91
2022-10-11T23:22:53.494Z,101708.13
2022-10-11T23:25:20.109Z,101709.94
2022-10-11T23:27:46.763Z,101709.94
2022-10-11T23:30:13.677Z,101728.69
2022-10-11T23:32:40.323Z,101720.69
2022-10-11T23:35:07.294Z,101724.13
2022-10-11T23:37:33.947Z,101721.75
2022-10-11T23:40:00.585Z,101720.84
2022-10-11T23:42:27.208Z,101724.53
2022-10-11T23:44:54.250Z,101722.91
2022-10-11T23:47:20.882Z,101728.09
2022-10-11T23:49:47.529Z,101720.72
2022-10-11T23:52:14.132Z,101731.25
2022-10-11T23:54:40.904Z,101721.66
2022-10-11T23:57:07.492Z,101731.50
2022-10-11T23:59:34.097Z,101724.25
